sensor_id;sensor_type;location;lat;lon;timestamp;P1;P2;P0
37290;PMS5003;23175;-33.706;151.094;2023-04-25T00:02:14;3;3;
37290;PMS5003;23175;-33.706;151.094;2023-04-25T00:04:44;4;4;
37290;PMS5003;23175;-33.706;151.094;2023-04-25T00:07:16;3;2;
37290;PMS5003;23175;-33.706;151.094;2023-04-25T00:09:46;3;3;
37290;PMS5003;23175;-33.706;151.094;2023-04-25T00:12:16;5;2;
37290;PMS5003;23175;-33.706;151.094;2023-04-25T00:14:46;3;1;
37290;PMS5003;23175;-33.706;151.094;2023-04-25T00:17:16;7;4;
37290;PMS5003;23175;-33.706;151.094;2023-04-25T00:19:45;8;5;
37290;PMS5003;23175;-33.706;151.094;2023-04-25T00:22:15;3;2;
37290;PMS5003;23175;-33.706;151.094;2023-04-25T00:24:46;1;0;
37290;PMS5003;23175;-33.706;151.094;2023-04-25T00:27:15;3;1;
37290;PMS5003;23175;-33.706;151.094;2023-04-25T00:29:46;4;3;
37290;PMS5003;23175;-33.706;151.094;2023-04-25T00:32:16;4;2;
37290;PMS5003;23175;-33.706;151.094;2023-04-25T00:34:46;6;3;
37290;PMS5003;23175;-33.706;151.094;2023-04-25T00:37:16;7;5;
37290;PMS5003;23175;-33.706;151.094;2023-04-25T00:39:46;8;7;
37290;PMS5003;23175;-33.706;151.094;2023-04-25T00:42:17;7;4;
37290;PMS5003;23175;-33.706;151.094;2023-04-25T00:44:48;13;9;
37290;PMS5003;23175;-33.706;151.094;2023-04-25T00:47:19;2;2;
37290;PMS5003;23175;-33.706;151.094;2023-04-25T00:49:49;6;4;
37290;PMS5003;23175;-33.706;151.094;2023-04-25T00:52:20;3;2;
37290;PMS5003;23175;-33.706;151.094;2023-04-25T00:54:50;3;2;
37290;PMS5003;23175;-33.706;151.094;2023-04-25T00:57:20;3;1;
37290;PMS5003;23175;-33.706;151.094;2023-04-25T00:59:51;6;4;
37290;PMS5003;23175;-33.706;151.094;2023-04-25T01:02:22;1;1;
37290;PMS5003;23175;-33.706;151.094;2023-04-25T01:04:53;6;4;
37290;PMS5003;23175;-33.706;151.094;2023-04-25T01:07:23;5;4;
37290;PMS5003;23175;-33.706;151.094;2023-04-25T01:09:54;3;3;
37290;PMS5003;23175;-33.706;151.094;2023-04-25T01:12:24;5;3;
37290;PMS5003;23175;-33.706;151.094;2023-04-25T01:14:54;6;3;
37290;PMS5003;23175;-33.706;151.094;2023-04-25T01:17:24;2;2;
37290;PMS5003;23175;-33.706;151.094;2023-04-25T01:19:55;5;4;
37290;PMS5003;23175;-33.706;151.094;2023-04-25T01:22:25;7;4;
37290;PMS5003;23175;-33.706;151.094;2023-04-25T01:24:55;5;3;
37290;PMS5003;23175;-33.706;151.094;2023-04-25T01:27:26;6;5;
37290;PMS5003;23175;-33.706;151.094;2023-04-25T01:29:57;5;4;
37290;PMS5003;23175;-33.706;151.094;2023-04-25T01:32:27;4;2;
37290;PMS5003;23175;-33.706;151.094;2023-04-25T01:34:57;5;4;
37290;PMS5003;23175;-33.706;151.094;2023-04-25T01:37:28;8;6;
37290;PMS5003;23175;-33.706;151.094;2023-04-25T01:39:58;8;5;
37290;PMS5003;23175;-33.706;151.094;2023-04-25T01:42:28;5;3;
37290;PMS5003;23175;-33.706;151.094;2023-04-25T01:44:59;4;3;
37290;PMS5003;23175;-33.706;151.094;2023-04-25T01:47:29;4;4;
37290;PMS5003;23175;-33.706;151.094;2023-04-25T01:50:00;4;4;
37290;PMS5003;23175;-33.706;151.094;2023-04-25T01:52:30;6;6;
37290;PMS5003;23175;-33.706;151.094;2023-04-25T01:55:00;8;8;
37290;PMS5003;23175;-33.706;151.094;2023-04-25T01:57:30;5;4;
37290;PMS5003;23175;-33.706;151.094;2023-04-25T02:00:01;3;3;
37290;PMS5003;23175;-33.706;151.094;2023-04-25T02:02:34;5;4;
37290;PMS5003;23175;-33.706;151.094;2023-04-25T02:05:05;8;5;
37290;PMS5003;23175;-33.706;151.094;2023-04-25T02:07:36;6;6;
37290;PMS5003;23175;-33.706;151.094;2023-04-25T02:10:05;7;6;
37290;PMS5003;23175;-33.706;151.094;2023-04-25T02:12:36;3;3;
37290;PMS5003;23175;-33.706;151.094;2023-04-25T02:15:07;4;4;
37290;PMS5003;23175;-33.706;151.094;2023-04-25T02:17:37;9;7;
37290;PMS5003;23175;-33.706;151.094;2023-04-25T02:20:07;9;6;
37290;PMS5003;23175;-33.706;151.094;2023-04-25T02:22:39;3;3;
37290;PMS5003;23175;-33.706;151.094;2023-04-25T02:25:09;7;3;
37290;PMS5003;23175;-33.706;151.094;2023-04-25T02:27:40;6;5;
37290;PMS5003;23175;-33.706;151.094;2023-04-25T02:30:10;8;8;
37290;PMS5003;23175;-33.706;151.094;2023-04-25T02:32:40;4;4;
37290;PMS5003;23175;-33.706;151.094;2023-04-25T02:35:11;7;6;
37290;PMS5003;23175;-33.706;151.094;2023-04-25T02:37:41;9;9;
37290;PMS5003;23175;-33.706;151.094;2023-04-25T02:40:11;7;5;
37290;PMS5003;23175;-33.706;151.094;2023-04-25T02:42:41;3;3;
37290;PMS5003;23175;-33.706;151.094;2023-04-25T02:45:12;5;5;
37290;PMS5003;23175;-33.706;151.094;2023-04-25T02:47:42;10;9;
37290;PMS5003;23175;-33.706;151.094;2023-04-25T02:50:12;10;6;
37290;PMS5003;23175;-33.706;151.094;2023-04-25T02:52:42;6;4;
37290;PMS5003;23175;-33.706;151.094;2023-04-25T02:55:13;8;4;
37290;PMS5003;23175;-33.706;151.094;2023-04-25T02:57:43;5;5;
37290;PMS5003;23175;-33.706;151.094;2023-04-25T03:00:13;5;5;
37290;PMS5003;23175;-33.706;151.094;2023-04-25T03:02:43;4;3;
37290;PMS5003;23175;-33.706;151.094;2023-04-25T03:05:14;5;3;
37290;PMS5003;23175;-33.706;151.094;2023-04-25T03:07:44;5;4;
37290;PMS5003;23175;-33.706;151.094;2023-04-25T03:10:14;3;3;
37290;PMS5003;23175;-33.706;151.094;2023-04-25T03:12:45;4;4;
37290;PMS5003;23175;-33.706;151.094;2023-04-25T03:15:15;11;6;
37290;PMS5003;23175;-33.706;151.094;2023-04-25T03:17:45;4;3;
37290;PMS5003;23175;-33.706;151.094;2023-04-25T03:20:16;6;6;
37290;PMS5003;23175;-33.706;151.094;2023-04-25T03:22:46;7;6;
37290;PMS5003;23175;-33.706;151.094;2023-04-25T03:25:16;6;5;
37290;PMS5003;23175;-33.706;151.094;2023-04-25T03:27:46;5;4;
37290;PMS5003;23175;-33.706;151.094;2023-04-25T03:30:17;6;4;
37290;PMS5003;23175;-33.706;151.094;2023-04-25T03:32:47;9;6;
37290;PMS5003;23175;-33.706;151.094;2023-04-25T03:35:17;6;6;
37290;PMS5003;23175;-33.706;151.094;2023-04-25T03:37:48;7;6;
37290;PMS5003;23175;-33.706;151.094;2023-04-25T03:40:18;12;7;
37290;PMS5003;23175;-33.706;151.094;2023-04-25T03:42:48;6;4;
37290;PMS5003;23175;-33.706;151.094;2023-04-25T03:45:18;6;6;
37290;PMS5003;23175;-33.706;151.094;2023-04-25T03:47:48;6;4;
37290;PMS5003;23175;-33.706;151.094;2023-04-25T03:50:19;5;5;
37290;PMS5003;23175;-33.706;151.094;2023-04-25T03:52:49;8;8;
37290;PMS5003;23175;-33.706;151.094;2023-04-25T03:55:19;5;4;
37290;PMS5003;23175;-33.706;151.094;2023-04-25T03:57:49;6;6;
37290;PMS5003;23175;-33.706;151.094;2023-04-25T04:00:20;4;4;
37290;PMS5003;23175;-33.706;151.094;2023-04-25T04:02:50;5;4;
37290;PMS5003;23175;-33.706;151.094;2023-04-25T04:05:20;4;4;
37290;PMS5003;23175;-33.706;151.094;2023-04-25T04:07:51;5;5;
37290;PMS5003;23175;-33.706;151.094;2023-04-25T04:10:22;6;4;
37290;PMS5003;23175;-33.706;151.094;2023-04-25T04:12:53;5;5;
37290;PMS5003;23175;-33.706;151.094;2023-04-25T04:15:23;7;5;
37290;PMS5003;23175;-33.706;151.094;2023-04-25T04:17:53;8;6;
37290;PMS5003;23175;-33.706;151.094;2023-04-25T04:20:23;10;10;
37290;PMS5003;23175;-33.706;151.094;2023-04-25T04:22:54;5;3;
37290;PMS5003;23175;-33.706;151.094;2023-04-25T04:25:24;8;6;
37290;PMS5003;23175;-33.706;151.094;2023-04-25T04:27:55;5;4;
37290;PMS5003;23175;-33.706;151.094;2023-04-25T04:30:25;6;5;
37290;PMS5003;23175;-33.706;151.094;2023-04-25T04:32:55;9;8;
37290;PMS5003;23175;-33.706;151.094;2023-04-25T04:35:25;8;8;
37290;PMS5003;23175;-33.706;151.094;2023-04-25T04:37:56;8;7;
37290;PMS5003;23175;-33.706;151.094;2023-04-25T04:40:26;8;6;
37290;PMS5003;23175;-33.706;151.094;2023-04-25T04:42:57;6;6;
37290;PMS5003;23175;-33.706;151.094;2023-04-25T04:45:27;5;5;
37290;PMS5003;23175;-33.706;151.094;2023-04-25T04:47:57;10;9;
37290;PMS5003;23175;-33.706;151.094;2023-04-25T04:50:28;7;6;
37290;PMS5003;23175;-33.706;151.094;2023-04-25T04:52:58;8;8;
37290;PMS5003;23175;-33.706;151.094;2023-04-25T04:55:28;8;7;
37290;PMS5003;23175;-33.706;151.094;2023-04-25T04:57:58;6;6;
37290;PMS5003;23175;-33.706;151.094;2023-04-25T05:00:28;8;6;
37290;PMS5003;23175;-33.706;151.094;2023-04-25T05:02:59;10;10;
37290;PMS5003;23175;-33.706;151.094;2023-04-25T05:05:30;12;10;
37290;PMS5003;23175;-33.706;151.094;2023-04-25T05:08:00;8;8;
37290;PMS5003;23175;-33.706;151.094;2023-04-25T05:10:30;12;11;
37290;PMS5003;23175;-33.706;151.094;2023-04-25T05:13:00;8;7;
37290;PMS5003;23175;-33.706;151.094;2023-04-25T05:15:30;8;3;
37290;PMS5003;23175;-33.706;151.094;2023-04-25T05:18:00;6;6;
37290;PMS5003;23175;-33.706;151.094;2023-04-25T05:20:31;6;5;
37290;PMS5003;23175;-33.706;151.094;2023-04-25T05:23:02;5;5;
37290;PMS5003;23175;-33.706;151.094;2023-04-25T05:25:32;4;3;
37290;PMS5003;23175;-33.706;151.094;2023-04-25T05:28:02;10;5;
37290;PMS5003;23175;-33.706;151.094;2023-04-25T05:30:33;6;6;
37290;PMS5003;23175;-33.706;151.094;2023-04-25T05:33:03;9;9;
37290;PMS5003;23175;-33.706;151.094;2023-04-25T05:35:33;5;4;
37290;PMS5003;23175;-33.706;151.094;2023-04-25T05:38:03;5;4;
37290;PMS5003;23175;-33.706;151.094;2023-04-25T05:40:34;9;4;
37290;PMS5003;23175;-33.706;151.094;2023-04-25T05:43:04;7;7;
37290;PMS5003;23175;-33.706;151.094;2023-04-25T05:45:39;4;4;
37290;PMS5003;23175;-33.706;151.094;2023-04-25T05:48:10;5;3;
37290;PMS5003;23175;-33.706;151.094;2023-04-25T05:50:40;5;5;
37290;PMS5003;23175;-33.706;151.094;2023-04-25T05:53:10;5;5;
37290;PMS5003;23175;-33.706;151.094;2023-04-25T05:55:40;6;4;
37290;PMS5003;23175;-33.706;151.094;2023-04-25T05:58:10;6;6;
37290;PMS5003;23175;-33.706;151.094;2023-04-25T06:00:40;6;5;
37290;PMS5003;23175;-33.706;151.094;2023-04-25T06:03:11;6;3;
37290;PMS5003;23175;-33.706;151.094;2023-04-25T06:05:41;6;4;
37290;PMS5003;23175;-33.706;151.094;2023-04-25T06:08:12;9;8;
37290;PMS5003;23175;-33.706;151.094;2023-04-25T06:10:42;6;5;
37290;PMS5003;23175;-33.706;151.094;2023-04-25T06:13:12;8;7;
37290;PMS5003;23175;-33.706;151.094;2023-04-25T06:15:43;5;5;
37290;PMS5003;23175;-33.706;151.094;2023-04-25T06:18:13;7;5;
37290;PMS5003;23175;-33.706;151.094;2023-04-25T06:20:43;8;5;
37290;PMS5003;23175;-33.706;151.094;2023-04-25T06:23:13;9;6;
37290;PMS5003;23175;-33.706;151.094;2023-04-25T06:25:43;5;3;
37290;PMS5003;23175;-33.706;151.094;2023-04-25T06:28:13;5;4;
37290;PMS5003;23175;-33.706;151.094;2023-04-25T06:30:43;6;6;
37290;PMS5003;23175;-33.706;151.094;2023-04-25T06:33:13;6;5;
37290;PMS5003;23175;-33.706;151.094;2023-04-25T06:35:43;4;3;
37290;PMS5003;23175;-33.706;151.094;2023-04-25T06:38:12;5;3;
37290;PMS5003;23175;-33.706;151.094;2023-04-25T06:40:43;7;6;
37290;PMS5003;23175;-33.706;151.094;2023-04-25T06:43:13;4;3;
37290;PMS5003;23175;-33.706;151.094;2023-04-25T06:45:43;9;6;
37290;PMS5003;23175;-33.706;151.094;2023-04-25T06:48:14;9;8;
37290;PMS5003;23175;-33.706;151.094;2023-04-25T06:50:44;5;5;
37290;PMS5003;23175;-33.706;151.094;2023-04-25T06:53:13;4;2;
37290;PMS5003;23175;-33.706;151.094;2023-04-25T06:55:43;4;4;
37290;PMS5003;23175;-33.706;151.094;2023-04-25T06:58:12;7;4;
37290;PMS5003;23175;-33.706;151.094;2023-04-25T07:00:43;5;2;
37290;PMS5003;23175;-33.706;151.094;2023-04-25T07:03:12;6;2;
37290;PMS5003;23175;-33.706;151.094;2023-04-25T07:05:42;11;6;
37290;PMS5003;23175;-33.706;151.094;2023-04-25T07:08:13;5;4;
37290;PMS5003;23175;-33.706;151.094;2023-04-25T07:10:43;11;6;
37290;PMS5003;23175;-33.706;151.094;2023-04-25T07:13:13;7;5;
37290;PMS5003;23175;-33.706;151.094;2023-04-25T07:15:44;6;4;
37290;PMS5003;23175;-33.706;151.094;2023-04-25T07:18:14;4;4;
37290;PMS5003;23175;-33.706;151.094;2023-04-25T07:20:44;6;2;
37290;PMS5003;23175;-33.706;151.094;2023-04-25T07:23:15;9;7;
37290;PMS5003;23175;-33.706;151.094;2023-04-25T07:25:45;9;5;
37290;PMS5003;23175;-33.706;151.094;2023-04-25T07:28:15;10;10;
37290;PMS5003;23175;-33.706;151.094;2023-04-25T07:30:46;4;3;
37290;PMS5003;23175;-33.706;151.094;2023-04-25T07:33:16;6;3;
37290;PMS5003;23175;-33.706;151.094;2023-04-25T07:35:47;4;4;
37290;PMS5003;23175;-33.706;151.094;2023-04-25T07:38:17;4;4;
37290;PMS5003;23175;-33.706;151.094;2023-04-25T07:40:47;5;5;
37290;PMS5003;23175;-33.706;151.094;2023-04-25T07:43:17;5;5;
37290;PMS5003;23175;-33.706;151.094;2023-04-25T07:45:47;5;4;
37290;PMS5003;23175;-33.706;151.094;2023-04-25T07:48:17;7;6;
37290;PMS5003;23175;-33.706;151.094;2023-04-25T07:50:48;8;6;
37290;PMS5003;23175;-33.706;151.094;2023-04-25T07:53:18;14;11;
37290;PMS5003;23175;-33.706;151.094;2023-04-25T07:55:48;6;6;
37290;PMS5003;23175;-33.706;151.094;2023-04-25T07:58:18;10;9;
37290;PMS5003;23175;-33.706;151.094;2023-04-25T08:00:49;16;14;
37290;PMS5003;23175;-33.706;151.094;2023-04-25T08:03:19;16;13;
37290;PMS5003;23175;-33.706;151.094;2023-04-25T08:05:49;14;11;
37290;PMS5003;23175;-33.706;151.094;2023-04-25T08:08:20;9;9;
37290;PMS5003;23175;-33.706;151.094;2023-04-25T08:10:50;6;6;
37290;PMS5003;23175;-33.706;151.094;2023-04-25T08:13:20;12;9;
37290;PMS5003;23175;-33.706;151.094;2023-04-25T08:15:50;13;11;
37290;PMS5003;23175;-33.706;151.094;2023-04-25T08:18:19;14;12;
37290;PMS5003;23175;-33.706;151.094;2023-04-25T08:20:49;14;11;
37290;PMS5003;23175;-33.706;151.094;2023-04-25T08:23:19;13;12;
37290;PMS5003;23175;-33.706;151.094;2023-04-25T08:25:50;12;12;
37290;PMS5003;23175;-33.706;151.094;2023-04-25T08:28:20;15;8;
37290;PMS5003;23175;-33.706;151.094;2023-04-25T08:30:51;9;5;
37290;PMS5003;23175;-33.706;151.094;2023-04-25T08:33:21;7;7;
37290;PMS5003;23175;-33.706;151.094;2023-04-25T08:35:51;17;11;
37290;PMS5003;23175;-33.706;151.094;2023-04-25T08:38:21;5;4;
37290;PMS5003;23175;-33.706;151.094;2023-04-25T08:40:52;5;5;
37290;PMS5003;23175;-33.706;151.094;2023-04-25T08:43:22;11;11;
37290;PMS5003;23175;-33.706;151.094;2023-04-25T08:45:53;6;4;
37290;PMS5003;23175;-33.706;151.094;2023-04-25T08:48:27;10;5;
37290;PMS5003;23175;-33.706;151.094;2023-04-25T08:51:01;6;6;
37290;PMS5003;23175;-33.706;151.094;2023-04-25T08:53:34;8;5;
37290;PMS5003;23175;-33.706;151.094;2023-04-25T08:56:05;7;4;
37290;PMS5003;23175;-33.706;151.094;2023-04-25T08:58:38;7;6;
37290;PMS5003;23175;-33.706;151.094;2023-04-25T09:01:08;7;6;
37290;PMS5003;23175;-33.706;151.094;2023-04-25T09:03:38;16;11;
37290;PMS5003;23175;-33.706;151.094;2023-04-25T09:06:09;17;10;
37290;PMS5003;23175;-33.706;151.094;2023-04-25T09:08:41;8;7;
37290;PMS5003;23175;-33.706;151.094;2023-04-25T09:11:11;7;5;
37290;PMS5003;23175;-33.706;151.094;2023-04-25T09:13:42;12;8;
37290;PMS5003;23175;-33.706;151.094;2023-04-25T09:16:13;9;6;
37290;PMS5003;23175;-33.706;151.094;2023-04-25T09:18:43;4;4;
37290;PMS5003;23175;-33.706;151.094;2023-04-25T09:21:14;6;2;
37290;PMS5003;23175;-33.706;151.094;2023-04-25T09:23:44;5;4;
37290;PMS5003;23175;-33.706;151.094;2023-04-25T09:26:16;4;3;
37290;PMS5003;23175;-33.706;151.094;2023-04-25T09:28:47;7;6;
37290;PMS5003;23175;-33.706;151.094;2023-04-25T09:31:31;5;5;
37290;PMS5003;23175;-33.706;151.094;2023-04-25T09:34:02;8;4;
37290;PMS5003;23175;-33.706;151.094;2023-04-25T09:36:32;9;7;
37290;PMS5003;23175;-33.706;151.094;2023-04-25T09:39:04;6;4;
37290;PMS5003;23175;-33.706;151.094;2023-04-25T09:41:42;5;3;
37290;PMS5003;23175;-33.706;151.094;2023-04-25T09:44:13;4;3;
37290;PMS5003;23175;-33.706;151.094;2023-04-25T09:46:43;5;5;
37290;PMS5003;23175;-33.706;151.094;2023-04-25T09:49:17;10;5;
37290;PMS5003;23175;-33.706;151.094;2023-04-25T09:51:55;14;3;
37290;PMS5003;23175;-33.706;151.094;2023-04-25T09:54:25;6;6;
37290;PMS5003;23175;-33.706;151.094;2023-04-25T09:56:55;7;5;
37290;PMS5003;23175;-33.706;151.094;2023-04-25T09:59:28;7;6;
37290;PMS5003;23175;-33.706;151.094;2023-04-25T10:02:03;10;8;
37290;PMS5003;23175;-33.706;151.094;2023-04-25T10:04:34;9;5;
37290;PMS5003;23175;-33.706;151.094;2023-04-25T10:07:06;8;6;
37290;PMS5003;23175;-33.706;151.094;2023-04-25T10:09:37;6;6;
37290;PMS5003;23175;-33.706;151.094;2023-04-25T10:12:08;8;5;
37290;PMS5003;23175;-33.706;151.094;2023-04-25T10:14:38;11;10;
37290;PMS5003;23175;-33.706;151.094;2023-04-25T10:17:10;21;16;
37290;PMS5003;23175;-33.706;151.094;2023-04-25T10:19:40;24;21;
37290;PMS5003;23175;-33.706;151.094;2023-04-25T10:22:13;33;31;
37290;PMS5003;23175;-33.706;151.094;2023-04-25T10:24:46;30;29;
37290;PMS5003;23175;-33.706;151.094;2023-04-25T10:27:17;27;23;
37290;PMS5003;23175;-33.706;151.094;2023-04-25T10:29:51;29;28;
37290;PMS5003;23175;-33.706;151.094;2023-04-25T10:32:30;20;18;
37290;PMS5003;23175;-33.706;151.094;2023-04-25T10:35:10;20;18;
37290;PMS5003;23175;-33.706;151.094;2023-04-25T10:37:58;21;20;
37290;PMS5003;23175;-33.706;151.094;2023-04-25T10:40:31;9;6;
37290;PMS5003;23175;-33.706;151.094;2023-04-25T10:43:34;8;4;
37290;PMS5003;23175;-33.706;151.094;2023-04-25T10:46:14;10;6;
37290;PMS5003;23175;-33.706;151.094;2023-04-25T10:48:46;5;5;
37290;PMS5003;23175;-33.706;151.094;2023-04-25T10:51:19;6;4;
37290;PMS5003;23175;-33.706;151.094;2023-04-25T10:53:59;4;4;
37290;PMS5003;23175;-33.706;151.094;2023-04-25T10:56:31;9;5;
37290;PMS5003;23175;-33.706;151.094;2023-04-25T10:59:09;12;8;
37290;PMS5003;23175;-33.706;151.094;2023-04-25T11:01:42;19;19;
37290;PMS5003;23175;-33.706;151.094;2023-04-25T11:04:21;55;49;
37290;PMS5003;23175;-33.706;151.094;2023-04-25T11:07:14;36;35;
37290;PMS5003;23175;-33.706;151.094;2023-04-25T11:09:51;43;41;
37290;PMS5003;23175;-33.706;151.094;2023-04-25T11:12:21;46;44;
37290;PMS5003;23175;-33.706;151.094;2023-04-25T11:14:58;49;46;
37290;PMS5003;23175;-33.706;151.094;2023-04-25T11:17:30;38;35;
37290;PMS5003;23175;-33.706;151.094;2023-04-25T11:20:00;45;44;
37290;PMS5003;23175;-33.706;151.094;2023-04-25T11:22:31;41;40;
37290;PMS5003;23175;-33.706;151.094;2023-04-25T11:25:05;37;36;
37290;PMS5003;23175;-33.706;151.094;2023-04-25T11:27:38;28;27;
37290;PMS5003;23175;-33.706;151.094;2023-04-25T11:30:19;25;25;
37290;PMS5003;23175;-33.706;151.094;2023-04-25T11:32:51;19;16;
37290;PMS5003;23175;-33.706;151.094;2023-04-25T11:35:22;33;27;
37290;PMS5003;23175;-33.706;151.094;2023-04-25T11:37:53;21;21;
37290;PMS5003;23175;-33.706;151.094;2023-04-25T11:40:23;22;18;
37290;PMS5003;23175;-33.706;151.094;2023-04-25T11:42:53;15;14;
37290;PMS5003;23175;-33.706;151.094;2023-04-25T11:45:23;12;10;
37290;PMS5003;23175;-33.706;151.094;2023-04-25T11:47:54;13;12;
37290;PMS5003;23175;-33.706;151.094;2023-04-25T11:50:24;6;6;
37290;PMS5003;23175;-33.706;151.094;2023-04-25T11:52:56;7;5;
37290;PMS5003;23175;-33.706;151.094;2023-04-25T12:00:07;21;15;
37290;PMS5003;23175;-33.706;151.094;2023-04-25T12:02:41;82;75;
37290;PMS5003;23175;-33.706;151.094;2023-04-25T12:05:12;77;70;
37290;PMS5003;23175;-33.706;151.094;2023-04-25T12:07:42;33;24;
37290;PMS5003;23175;-33.706;151.094;2023-04-25T12:10:13;89;84;
37290;PMS5003;23175;-33.706;151.094;2023-04-25T12:12:45;95;86;
37290;PMS5003;23175;-33.706;151.094;2023-04-25T12:15:17;56;47;
37290;PMS5003;23175;-33.706;151.094;2023-04-25T12:17:52;53;50;
37290;PMS5003;23175;-33.706;151.094;2023-04-25T12:20:23;49;46;
37290;PMS5003;23175;-33.706;151.094;2023-04-25T12:22:54;37;34;
37290;PMS5003;23175;-33.706;151.094;2023-04-25T12:25:43;26;24;
37290;PMS5003;23175;-33.706;151.094;2023-04-25T12:28:14;15;12;
37290;PMS5003;23175;-33.706;151.094;2023-04-25T12:31:02;13;10;
37290;PMS5003;23175;-33.706;151.094;2023-04-25T12:33:34;10;10;
37290;PMS5003;23175;-33.706;151.094;2023-04-25T12:36:05;10;8;
37290;PMS5003;23175;-33.706;151.094;2023-04-25T12:38:37;10;9;
37290;PMS5003;23175;-33.706;151.094;2023-04-25T12:41:07;44;39;
37290;PMS5003;23175;-33.706;151.094;2023-04-25T12:43:38;94;90;
37290;PMS5003;23175;-33.706;151.094;2023-04-25T12:46:08;45;45;
37290;PMS5003;23175;-33.706;151.094;2023-04-25T12:48:38;61;57;
37290;PMS5003;23175;-33.706;151.094;2023-04-25T12:51:08;62;59;
37290;PMS5003;23175;-33.706;151.094;2023-04-25T12:53:38;44;43;
37290;PMS5003;23175;-33.706;151.094;2023-04-25T12:56:08;31;28;
37290;PMS5003;23175;-33.706;151.094;2023-04-25T12:58:38;19;18;
37290;PMS5003;23175;-33.706;151.094;2023-04-25T13:01:10;58;57;
37290;PMS5003;23175;-33.706;151.094;2023-04-25T13:03:45;81;73;
37290;PMS5003;23175;-33.706;151.094;2023-04-25T13:06:15;41;38;
37290;PMS5003;23175;-33.706;151.094;2023-04-25T13:08:46;54;46;
37290;PMS5003;23175;-33.706;151.094;2023-04-25T13:11:22;52;47;
37290;PMS5003;23175;-33.706;151.094;2023-04-25T13:13:52;27;23;
37290;PMS5003;23175;-33.706;151.094;2023-04-25T13:16:24;30;27;
37290;PMS5003;23175;-33.706;151.094;2023-04-25T13:18:54;19;18;
37290;PMS5003;23175;-33.706;151.094;2023-04-25T13:21:25;23;20;
37290;PMS5003;23175;-33.706;151.094;2023-04-25T13:23:57;16;13;
37290;PMS5003;23175;-33.706;151.094;2023-04-25T13:26:27;15;15;
37290;PMS5003;23175;-33.706;151.094;2023-04-25T13:28:57;12;12;
37290;PMS5003;23175;-33.706;151.094;2023-04-25T13:31:27;14;12;
37290;PMS5003;23175;-33.706;151.094;2023-04-25T13:33:57;20;19;
37290;PMS5003;23175;-33.706;151.094;2023-04-25T13:36:27;15;14;
37290;PMS5003;23175;-33.706;151.094;2023-04-25T13:38:58;36;30;
37290;PMS5003;23175;-33.706;151.094;2023-04-25T13:41:27;52;50;
37290;PMS5003;23175;-33.706;151.094;2023-04-25T13:43:58;57;52;
37290;PMS5003;23175;-33.706;151.094;2023-04-25T13:46:28;53;52;
37290;PMS5003;23175;-33.706;151.094;2023-04-25T13:48:58;33;30;
37290;PMS5003;23175;-33.706;151.094;2023-04-25T13:51:38;31;31;
37290;PMS5003;23175;-33.706;151.094;2023-04-25T13:54:08;25;25;
37290;PMS5003;23175;-33.706;151.094;2023-04-25T13:56:39;31;27;
37290;PMS5003;23175;-33.706;151.094;2023-04-25T13:59:09;20;19;
37290;PMS5003;23175;-33.706;151.094;2023-04-25T14:01:39;23;23;
37290;PMS5003;23175;-33.706;151.094;2023-04-25T14:04:09;23;21;
37290;PMS5003;23175;-33.706;151.094;2023-04-25T14:06:39;18;17;
37290;PMS5003;23175;-33.706;151.094;2023-04-25T14:09:09;31;31;
37290;PMS5003;23175;-33.706;151.094;2023-04-25T14:11:39;24;23;
37290;PMS5003;23175;-33.706;151.094;2023-04-25T14:14:09;24;22;
37290;PMS5003;23175;-33.706;151.094;2023-04-25T14:16:39;23;16;
37290;PMS5003;23175;-33.706;151.094;2023-04-25T14:19:09;21;17;
37290;PMS5003;23175;-33.706;151.094;2023-04-25T14:21:40;13;13;
37290;PMS5003;23175;-33.706;151.094;2023-04-25T14:24:10;12;12;
37290;PMS5003;23175;-33.706;151.094;2023-04-25T14:26:41;13;13;
37290;PMS5003;23175;-33.706;151.094;2023-04-25T14:29:11;13;12;
37290;PMS5003;23175;-33.706;151.094;2023-04-25T14:31:41;14;12;
37290;PMS5003;23175;-33.706;151.094;2023-04-25T14:34:12;15;14;
37290;PMS5003;23175;-33.706;151.094;2023-04-25T14:36:42;16;15;
37290;PMS5003;23175;-33.706;151.094;2023-04-25T14:39:11;13;12;
37290;PMS5003;23175;-33.706;151.094;2023-04-25T14:41:46;14;13;
37290;PMS5003;23175;-33.706;151.094;2023-04-25T14:44:16;12;12;
37290;PMS5003;23175;-33.706;151.094;2023-04-25T14:46:51;13;12;
37290;PMS5003;23175;-33.706;151.094;2023-04-25T14:49:21;12;11;
37290;PMS5003;23175;-33.706;151.094;2023-04-25T14:51:52;9;9;
37290;PMS5003;23175;-33.706;151.094;2023-04-25T14:54:22;11;10;
37290;PMS5003;23175;-33.706;151.094;2023-04-25T14:56:52;8;6;
37290;PMS5003;23175;-33.706;151.094;2023-04-25T14:59:23;9;8;
37290;PMS5003;23175;-33.706;151.094;2023-04-25T15:01:58;10;10;
37290;PMS5003;23175;-33.706;151.094;2023-04-25T15:04:28;9;8;
37290;PMS5003;23175;-33.706;151.094;2023-04-25T15:06:58;10;7;
37290;PMS5003;23175;-33.706;151.094;2023-04-25T15:09:28;8;8;
37290;PMS5003;23175;-33.706;151.094;2023-04-25T15:11:58;11;7;
37290;PMS5003;23175;-33.706;151.094;2023-04-25T15:14:28;8;7;
37290;PMS5003;23175;-33.706;151.094;2023-04-25T15:16:59;10;8;
37290;PMS5003;23175;-33.706;151.094;2023-04-25T15:19:34;7;5;
37290;PMS5003;23175;-33.706;151.094;2023-04-25T15:22:05;7;6;
37290;PMS5003;23175;-33.706;151.094;2023-04-25T15:24:35;7;6;
37290;PMS5003;23175;-33.706;151.094;2023-04-25T15:27:05;5;4;
37290;PMS5003;23175;-33.706;151.094;2023-04-25T15:29:41;8;5;
37290;PMS5003;23175;-33.706;151.094;2023-04-25T15:32:15;7;5;
37290;PMS5003;23175;-33.706;151.094;2023-04-25T15:34:45;8;7;
37290;PMS5003;23175;-33.706;151.094;2023-04-25T15:37:16;5;3;
37290;PMS5003;23175;-33.706;151.094;2023-04-25T15:39:46;8;5;
37290;PMS5003;23175;-33.706;151.094;2023-04-25T15:42:27;9;8;
37290;PMS5003;23175;-33.706;151.094;2023-04-25T15:45:03;15;8;
37290;PMS5003;23175;-33.706;151.094;2023-04-25T15:47:34;6;3;
37290;PMS5003;23175;-33.706;151.094;2023-04-25T15:50:07;9;6;
37290;PMS5003;23175;-33.706;151.094;2023-04-25T15:52:38;5;5;
37290;PMS5003;23175;-33.706;151.094;2023-04-25T15:55:10;3;3;
37290;PMS5003;23175;-33.706;151.094;2023-04-25T15:57:40;4;4;
37290;PMS5003;23175;-33.706;151.094;2023-04-25T16:00:15;8;3;
37290;PMS5003;23175;-33.706;151.094;2023-04-25T16:02:46;7;7;
37290;PMS5003;23175;-33.706;151.094;2023-04-25T16:05:16;6;5;
37290;PMS5003;23175;-33.706;151.094;2023-04-25T16:07:46;10;9;
37290;PMS5003;23175;-33.706;151.094;2023-04-25T16:10:17;4;4;
37290;PMS5003;23175;-33.706;151.094;2023-04-25T16:12:47;7;6;
37290;PMS5003;23175;-33.706;151.094;2023-04-25T16:15:17;5;5;
37290;PMS5003;23175;-33.706;151.094;2023-04-25T16:17:47;6;4;
37290;PMS5003;23175;-33.706;151.094;2023-04-25T16:20:17;5;5;
37290;PMS5003;23175;-33.706;151.094;2023-04-25T16:22:46;4;4;